Time;durP1;ratioP1;P1;durP2;ratioP2;P2;SDS_P1;SDS_P2;PMS_P1;PMS_P2;Temp;Humidity;BMP_temperature;BMP_pressure;BME280_temperature;BME280_humidity;BME280_pressure;Samples;Min_cycle;Max_cycle;Signal;HPM_P1;HPM_P2
2024/03/25 00:01:24;;;;;;;5.55;2.33;;;3.50;99.90;;;;;;5081408;28;20032;-70
2024/03/25 00:03:50;;;;;;;4.50;2.55;;;3.40;99.90;;;;;;5081438;28;20055;-71
2024/03/25 00:06:16;;;;;;;4.35;2.72;;;3.40;99.90;;;;;;5081323;28;20025;-70
2024/03/25 00:08:42;;;;;;;4.03;2.40;;;3.90;99.90;;;;;;5081889;28;20039;-70
2024/03/25 00:11:07;;;;;;;4.15;2.50;;;3.20;99.90;;;;;;5080910;28;20071;-69
2024/03/25 00:13:33;;;;;;;3.17;2.28;;;3.40;99.90;;;;;;5081960;28;20016;-69
2024/03/25 00:15:59;;;;;;;2.25;1.80;;;3.20;99.90;;;;;;5080728;28;20025;-71
2024/03/25 00:18:25;;;;;;;2.42;2.13;;;3.30;99.90;;;;;;5080802;28;20286;-71
2024/03/25 00:20:51;;;;;;;3.47;2.35;;;3.20;99.90;;;;;;5062816;28;20024;-71
2024/03/25 00:23:17;;;;;;;2.90;1.80;;;3.20;99.90;;;;;;5062608;28;20024;-71
2024/03/25 00:25:43;;;;;;;3.92;2.28;;;3.10;99.90;;;;;;5080670;28;20043;-70
2024/03/25 00:28:08;;;;;;;5.05;2.50;;;3.00;99.90;;;;;;5080468;28;20066;-71
2024/03/25 00:30:34;;;;;;;3.95;2.67;;;3.10;99.90;;;;;;5081388;28;20072;-72
2024/03/25 00:33:00;;;;;;;2.72;1.90;;;3.20;99.90;;;;;;5080268;28;20339;-71
2024/03/25 00:35:27;;;;;;;3.67;2.30;;;3.00;99.90;;;;;;5080494;28;20031;-71
2024/03/25 00:37:53;;;;;;;2.47;2.22;;;3.00;99.90;;;;;;5080649;28;20117;-68
2024/03/25 00:40:20;;;;;;;3.25;2.05;;;3.10;99.90;;;;;;5080239;28;20058;-68
2024/03/25 00:42:46;;;;;;;2.58;1.77;;;3.00;99.90;;;;;;5085252;28;20019;-68
2024/03/25 00:45:12;;;;;;;2.47;1.90;;;2.90;99.90;;;;;;5081256;28;20243;-68
2024/03/25 00:47:37;;;;;;;2.97;2.00;;;3.00;99.90;;;;;;5083774;28;20047;-69
2024/03/25 00:50:04;;;;;;;1.95;1.60;;;3.00;99.90;;;;;;5080989;28;20041;-68
2024/03/25 00:52:30;;;;;;;3.40;2.10;;;3.10;99.90;;;;;;5091423;28;20052;-68
2024/03/25 00:54:55;;;;;;;3.47;1.88;;;2.90;99.90;;;;;;5083191;28;20401;-69
2024/03/25 00:57:21;;;;;;;3.85;2.65;;;3.00;99.90;;;;;;5065914;28;20024;-69
2024/03/25 00:59:46;;;;;;;6.43;2.20;;;3.00;99.90;;;;;;5090076;28;20323;-67
2024/03/25 01:02:12;;;;;;;4.13;2.17;;;2.90;99.90;;;;;;5080963;28;20059;-67
2024/03/25 01:04:37;;;;;;;5.22;2.45;;;2.90;99.90;;;;;;5080542;28;20078;-69
2024/03/25 01:07:03;;;;;;;2.80;2.30;;;3.10;99.90;;;;;;5079794;28;20037;-69
2024/03/25 01:09:29;;;;;;;3.47;2.03;;;3.10;99.90;;;;;;5079850;28;20033;-69
2024/03/25 01:11:55;;;;;;;3.15;2.00;;;3.30;99.90;;;;;;5061466;28;20024;-68
2024/03/25 01:14:21;;;;;;;2.63;1.80;;;3.30;99.90;;;;;;5061886;28;20028;-68
2024/03/25 01:16:47;;;;;;;1.98;1.63;;;3.40;99.90;;;;;;5080004;28;20024;-67
2024/03/25 01:19:13;;;;;;;2.92;2.00;;;3.50;99.90;;;;;;5079596;28;20032;-67
2024/03/25 01:21:38;;;;;;;2.60;2.25;;;3.70;99.90;;;;;;5080062;28;20344;-68
2024/03/25 01:24:04;;;;;;;3.45;1.70;;;3.70;99.90;;;;;;5061658;28;20038;-68
2024/03/25 01:26:30;;;;;;;3.92;2.22;;;4.10;99.90;;;;;;5063291;28;20024;-71
2024/03/25 01:28:56;;;;;;;2.25;1.98;;;3.90;99.90;;;;;;5061369;28;20028;-71
2024/03/25 01:31:21;;;;;;;3.10;2.00;;;3.80;99.90;;;;;;5079509;28;20028;-68
2024/03/25 01:33:47;;;;;;;3.25;2.40;;;3.80;99.90;;;;;;5079615;28;20112;-71
2024/03/25 01:36:17;;;;;;;3.92;2.33;;;3.70;99.90;;;;;;5084780;28;20102;-71
2024/03/25 01:38:43;;;;;;;2.92;2.10;;;3.90;99.90;;;;;;5080192;28;20013;-70
2024/03/25 01:41:10;;;;;;;3.67;2.17;;;3.70;99.90;;;;;;5079267;28;20332;-71
2024/03/25 01:43:37;;;;;;;2.25;2.05;;;4.20;99.90;;;;;;5079107;28;20327;-71
2024/03/25 01:46:03;;;;;;;3.80;2.40;;;;;;;;;;5079297;28;20212;-72
2024/03/25 01:48:28;;;;;;;3.33;2.10;;;3.90;99.90;;;;;;5061193;28;20037;-71
2024/03/25 01:50:56;;;;;;;3.53;2.47;;;4.00;99.90;;;;;;5092541;28;20042;-71
2024/03/25 01:53:24;;;;;;;2.63;1.98;;;4.00;99.90;;;;;;5087554;28;20044;-71
2024/03/25 01:55:53;;;;;;;2.58;2.05;;;4.00;99.90;;;;;;5082655;28;20078;-71
2024/03/25 01:58:19;;;;;;;3.72;2.15;;;;;;;;;;5079467;28;20032;-70
2024/03/25 02:00:45;;;;;;;5.93;2.35;;;4.20;99.90;;;;;;5082155;28;20086;-68
2024/03/25 02:03:12;;;;;;;3.42;2.05;;;;;;;;;;5078967;28;20032;-71
2024/03/25 02:05:38;;;;;;;4.20;2.53;;;4.20;99.90;;;;;;5079482;28;20032;-70
2024/03/25 02:08:05;;;;;;;5.57;2.38;;;4.20;99.90;;;;;;5079199;28;20051;-71
2024/03/25 02:10:32;;;;;;;4.05;2.20;;;4.30;99.90;;;;;;5079229;28;20028;-71
2024/03/25 02:12:59;;;;;;;2.83;1.95;;;4.30;99.90;;;;;;5079681;28;20091;-70
2024/03/25 02:15:26;;;;;;;3.17;2.40;;;4.30;99.90;;;;;;5048695;28;20041;-70
2024/03/25 02:17:52;;;;;;;2.10;1.80;;;4.40;99.90;;;;;;5083893;28;20035;-70
2024/03/25 02:20:18;;;;;;;3.22;2.20;;;4.40;99.90;;;;;;5079193;28;20091;-71
2024/03/25 02:22:43;;;;;;;2.28;1.95;;;4.40;99.90;;;;;;5080822;28;20360;-71
2024/03/25 02:25:10;;;;;;;4.00;2.00;;;4.50;99.90;;;;;;5080785;28;20335;-71
2024/03/25 02:27:38;;;;;;;3.40;1.98;;;4.50;99.90;;;;;;5083190;28;20062;-67
2024/03/25 02:30:07;;;;;;;3.40;2.17;;;4.40;99.90;;;;;;5084746;28;20048;-68
2024/03/25 02:32:33;;;;;;;2.38;2.03;;;4.50;99.90;;;;;;5082862;28;20269;-68
2024/03/25 02:34:59;;;;;;;4.38;1.63;;;4.30;99.90;;;;;;5048429;28;20029;-69
2024/03/25 02:37:26;;;;;;;1.95;1.63;;;4.30;99.90;;;;;;5082868;28;20043;-69
2024/03/25 02:39:55;;;;;;;5.18;1.77;;;4.20;99.90;;;;;;5082603;28;20227;-68
2024/03/25 02:42:21;;;;;;;4.93;2.38;;;;;;;;;;5082801;28;20043;-68
2024/03/25 02:44:47;;;;;;;2.28;1.70;;;4.00;99.90;;;;;;5083823;28;20032;-68
2024/03/25 02:47:12;;;;;;;2.05;1.52;;;3.90;99.90;;;;;;5048840;28;20284;-70
2024/03/25 02:49:38;;;;;;;3.85;2.17;;;3.80;99.90;;;;;;5082526;28;20028;-69
2024/03/25 02:52:04;;;;;;;2.35;1.70;;;3.90;99.90;;;;;;5068244;28;20036;-69
2024/03/25 02:54:30;;;;;;;3.50;1.60;;;3.80;99.90;;;;;;5102634;28;20056;-68
2024/03/25 02:56:57;;;;;;;2.58;1.55;;;3.90;99.90;;;;;;5110618;28;20063;-68
2024/03/25 02:59:22;;;;;;;2.95;1.67;;;3.70;99.90;;;;;;5084517;28;20032;-70
2024/03/25 03:01:48;;;;;;;2.25;1.90;;;3.50;99.90;;;;;;5103075;28;20096;-68
2024/03/25 03:04:13;;;;;;;2.33;1.55;;;3.80;99.90;;;;;;5102500;28;20044;-67
2024/03/25 03:06:39;;;;;;;2.28;1.75;;;3.80;99.90;;;;;;5102554;28;20055;-69
2024/03/25 03:09:05;;;;;;;2.63;1.90;;;3.70;99.90;;;;;;5102441;28;20055;-69
2024/03/25 03:11:31;;;;;;;2.50;1.65;;;3.90;99.90;;;;;;5102189;28;20527;-67
2024/03/25 03:13:56;;;;;;;2.75;2.00;;;4.00;99.90;;;;;;5101970;28;20062;-68
2024/03/25 03:16:22;;;;;;;1.63;1.52;;;;;;;;;;5105055;28;20028;-69
2024/03/25 03:18:48;;;;;;;3.05;1.80;;;4.30;99.90;;;;;;5117242;28;20041;-70
2024/03/25 03:21:13;;;;;;;2.92;1.80;;;4.20;99.90;;;;;;5107207;28;20114;-70
2024/03/25 03:23:39;;;;;;;3.50;1.73;;;4.30;99.90;;;;;;5102174;28;20343;-71
2024/03/25 03:26:05;;;;;;;2.97;1.60;;;4.40;99.90;;;;;;5102108;28;20087;-70
2024/03/25 03:28:30;;;;;;;3.15;1.70;;;4.50;99.90;;;;;;5110424;28;20204;-70
2024/03/25 03:30:56;;;;;;;2.63;1.77;;;4.40;99.90;;;;;;5101920;28;20036;-70
2024/03/25 03:33:22;;;;;;;2.58;1.38;;;4.50;99.90;;;;;;5101978;28;20032;-68
2024/03/25 03:35:49;;;;;;;3.38;1.77;;;4.50;99.90;;;;;;5102256;28;20035;-70
2024/03/25 03:38:14;;;;;;;3.58;1.65;;;4.50;99.90;;;;;;5083639;28;20032;-70
2024/03/25 03:40:40;;;;;;;4.13;2.10;;;;;;;;;;5069013;28;20043;-70
2024/03/25 03:43:06;;;;;;;2.50;1.90;;;;;;;;;;5099691;28;20350;-70
2024/03/25 03:45:35;;;;;;;1.80;1.35;;;4.70;99.90;;;;;;5101709;28;20028;-71
2024/03/25 03:48:01;;;;;;;3.05;1.75;;;5.00;99.90;;;;;;5101764;28;20243;-70
2024/03/25 03:50:27;;;;;;;2.05;1.73;;;;;;;;;;5101712;28;20363;-70
2024/03/25 03:52:53;;;;;;;2.78;1.70;;;;;;;;;;5101897;28;20051;-70
2024/03/25 03:55:19;;;;;;;3.58;1.83;;;;;;;;;;5101438;28;20087;-68
2024/03/25 03:57:45;;;;;;;3.47;1.80;;;;;;;;;;5103500;27;20442;-69
2024/03/25 04:00:13;;;;;;;2.85;1.60;;;5.00;99.90;;;;;;5118268;27;20323;-67
2024/03/25 04:02:38;;;;;;;2.78;1.80;;;4.80;99.90;;;;;;5101092;28;20031;-65
2024/03/25 04:05:04;;;;;;;2.03;1.55;;;4.90;99.90;;;;;;5101131;28;20350;-66
2024/03/25 04:07:32;;;;;;;3.10;1.90;;;4.80;99.90;;;;;;5101193;28;20232;-65
2024/03/25 04:09:59;;;;;;;2.92;1.70;;;;;;;;;;5101490;28;20055;-64
2024/03/25 04:12:26;;;;;;;3.25;1.80;;;;;;;;;;5101217;28;20020;-66
2024/03/25 04:14:55;;;;;;;0.93;0.80;;;;;;;;;;5082953;28;20414;-66
2024/03/25 04:17:22;;;;;;;1.83;0.98;;;5.40;99.90;;;;;;5100890;28;20012;-66
2024/03/25 04:19:48;;;;;;;1.20;0.82;;;5.10;99.90;;;;;;5101111;28;20040;-66
2024/03/25 04:22:14;;;;;;;1.30;0.95;;;;;;;;;;5100388;28;20028;-66
2024/03/25 04:24:40;;;;;;;1.20;0.80;;;;;;;;;;5099913;28;20032;-71
2024/03/25 04:27:07;;;;;;;1.25;0.77;;;;;;;;;;5106321;28;20319;-67
2024/03/25 04:29:33;;;;;;;0.95;0.80;;;;;;;;;;5100334;28;20315;-67
2024/03/25 04:31:58;;;;;;;6.32;1.08;;;5.50;99.90;;;;;;5100446;28;20047;-65
2024/03/25 04:34:24;;;;;;;3.05;1.27;;;5.70;99.90;;;;;;5082607;28;20028;-67
2024/03/25 04:36:49;;;;;;;5.28;1.88;;;5.60;99.90;;;;;;5100498;28;20028;-66
2024/03/25 04:39:15;;;;;;;2.50;1.40;;;5.60;93.70;;;;;;5100414;28;20027;-67
2024/03/25 04:41:40;;;;;;;3.25;1.55;;;5.80;99.90;;;;;;5100699;28;20055;-64
2024/03/25 04:44:06;;;;;;;2.08;0.77;;;5.70;99.90;;;;;;5101061;28;20028;-67
2024/03/25 04:46:32;;;;;;;3.03;0.93;;;5.70;99.90;;;;;;5108146;28;20376;-66
2024/03/25 04:48:58;;;;;;;0.93;0.80;;;5.90;99.90;;;;;;5099972;28;20141;-67
2024/03/25 04:51:23;;;;;;;0.40;0.40;;;5.80;99.90;;;;;;5100494;28;20028;-69
2024/03/25 04:53:49;;;;;;;1.75;0.82;;;5.70;93.20;;;;;;5100450;28;20056;-67
2024/03/25 04:56:15;;;;;;;3.55;1.02;;;5.50;99.90;;;;;;5100356;28;20032;-70
2024/03/25 04:58:40;;;;;;;2.30;1.05;;;5.80;99.90;;;;;;5100431;28;20094;-69
2024/03/25 05:01:06;;;;;;;0.77;0.77;;;5.60;99.20;;;;;;5100819;28;20087;-68
2024/03/25 05:03:31;;;;;;;1.85;1.17;;;5.70;99.90;;;;;;5100306;28;20366;-66
2024/03/25 05:05:58;;;;;;;0.77;0.77;;;5.60;94.30;;;;;;5100264;28;20091;-69
2024/03/25 05:08:24;;;;;;;1.55;1.17;;;5.70;99.90;;;;;;5082217;28;20028;-68
2024/03/25 05:10:51;;;;;;;1.23;1.10;;;5.70;99.90;;;;;;5100374;28;20036;-66
2024/03/25 05:13:17;;;;;;;1.45;0.88;;;5.60;99.90;;;;;;5100027;28;20036;-66
2024/03/25 05:15:50;;;;;;;0.98;0.77;;;5.80;99.90;;;;;;5087064;28;20161;-66
2024/03/25 05:18:17;;;;;;;1.17;1.08;;;5.60;98.60;;;;;;5102013;28;20233;-65
2024/03/25 05:20:42;;;;;;;2.83;1.02;;;5.50;96.20;;;;;;5099775;28;20043;-64
2024/03/25 05:23:08;;;;;;;5.00;2.15;;;5.60;99.90;;;;;;5107262;28;20047;-65
2024/03/25 05:25:38;;;;;;;1.25;1.00;;;5.60;96.70;;;;;;5101139;28;20374;-64
2024/03/25 05:28:04;;;;;;;2.03;1.23;;;5.60;96.80;;;;;;5101949;28;20034;-66
2024/03/25 05:30:30;;;;;;;1.67;1.23;;;5.60;97.00;;;;;;5102302;28;20038;-67
2024/03/25 05:32:55;;;;;;;5.65;1.38;;;5.60;97.20;;;;;;5100774;28;20040;-66
2024/03/25 05:35:21;;;;;;;2.20;1.30;;;5.60;97.20;;;;;;5107012;28;20039;-65
2024/03/25 05:37:47;;;;;;;1.40;1.10;;;5.70;97.40;;;;;;5099947;28;20024;-67
2024/03/25 05:40:12;;;;;;;3.92;1.48;;;5.60;97.20;;;;;;5099117;28;20024;-65
2024/03/25 05:42:38;;;;;;;1.83;1.35;;;5.70;99.90;;;;;;5099675;28;20024;-66
2024/03/25 05:45:04;;;;;;;2.67;1.10;;;5.70;97.60;;;;;;5105322;28;20038;-66
2024/03/25 05:47:30;;;;;;;2.70;1.38;;;5.80;99.90;;;;;;5099534;28;20036;-66
2024/03/25 05:49:56;;;;;;;4.80;1.35;;;5.70;98.00;;;;;;5109100;28;20096;-64
2024/03/25 05:52:21;;;;;;;4.78;1.67;;;5.80;99.90;;;;;;5100004;28;20047;-64
2024/03/25 05:54:47;;;;;;;3.63;1.92;;;5.80;98.00;;;;;;5064649;28;20032;-64
2024/03/25 05:57:13;;;;;;;8.40;1.75;;;5.80;97.70;;;;;;5099613;28;20102;-66
2024/03/25 05:59:38;;;;;;;1.48;1.17;;;5.90;99.90;;;;;;5084030;28;20262;-63
2024/03/25 06:02:04;;;;;;;2.45;1.58;;;6.00;97.20;;;;;;5103676;28;20250;-64
2024/03/25 06:04:30;;;;;;;1.75;1.00;;;6.10;96.60;;;;;;5103736;28;20408;-63
2024/03/25 06:06:56;;;;;;;1.80;1.20;;;6.20;96.60;;;;;;5111684;28;20095;-64
2024/03/25 06:09:21;;;;;;;1.40;0.90;;;6.30;95.70;;;;;;5104342;28;20343;-65
2024/03/25 06:11:47;;;;;;;1.75;1.00;;;6.50;93.90;;;;;;5103696;28;20048;-63
2024/03/25 06:14:13;;;;;;;2.13;1.17;;;6.50;94.10;;;;;;5103537;28;20141;-64
2024/03/25 06:16:39;;;;;;;4.80;1.20;;;6.70;99.90;;;;;;5085113;28;20051;-63
2024/03/25 06:19:04;;;;;;;1.50;1.02;;;6.80;99.90;;;;;;5104641;28;20020;-65
2024/03/25 06:21:30;;;;;;;2.20;1.15;;;6.80;99.90;;;;;;5112197;28;20058;-65
2024/03/25 06:23:55;;;;;;;0.80;0.80;;;6.90;91.40;;;;;;5103567;28;20327;-65
2024/03/25 06:26:22;;;;;;;2.83;1.30;;;7.10;98.20;;;;;;5103735;28;20323;-65
2024/03/25 06:28:47;;;;;;;0.95;0.80;;;7.20;97.70;;;;;;5111972;28;20094;-66
2024/03/25 06:34:21;;;;;;;1.02;0.80;;;;;;;;;;5104347;27;20085;-66
2024/03/25 06:36:47;;;;;;;0.75;0.70;;;;;;;;;;5107487;28;20038;-66
2024/03/25 06:39:14;;;;;;;0.82;0.82;;;7.30;95.50;;;;;;5106266;28;20046;-65
2024/03/25 06:41:39;;;;;;;2.05;1.08;;;7.00;95.40;;;;;;5103044;28;20031;-65
2024/03/25 06:44:05;;;;;;;1.85;1.20;;;7.40;92.20;;;;;;5103223;28;20032;-65
2024/03/25 06:46:31;;;;;;;1.35;1.00;;;7.20;95.30;;;;;;5109462;28;20032;-65
2024/03/25 06:48:57;;;;;;;4.47;1.25;;;;;;;;;;5106429;28;20035;-65
2024/03/25 06:51:23;;;;;;;2.78;1.25;;;7.30;86.20;;;;;;5084007;28;20228;-65
2024/03/25 06:53:49;;;;;;;1.10;1.00;;;;;;;;;;5102563;28;20047;-64
2024/03/25 06:56:16;;;;;;;3.65;1.30;;;;;;;;;;5085145;28;20036;-65
2024/03/25 06:58:43;;;;;;;2.65;0.90;;;;;;;;;;5091992;28;20095;-66
2024/03/25 07:01:11;;;;;;;2.03;1.30;;;7.70;84.70;;;;;;5109132;28;20015;-65
2024/03/25 07:03:38;;;;;;;2.20;0.93;;;7.50;78.30;;;;;;5106574;28;20331;-66
2024/03/25 07:06:04;;;;;;;1.38;1.10;;;;;;;;;;5068320;28;20081;-66
2024/03/25 07:08:31;;;;;;;1.50;1.38;;;7.60;77.30;;;;;;5093046;28;20023;-65
2024/03/25 07:10:57;;;;;;;2.15;1.17;;;7.70;76.70;;;;;;5100234;28;20046;-65
2024/03/25 07:13:23;;;;;;;2.72;1.27;;;;;;;;;;5101034;28;20031;-65
2024/03/25 07:15:49;;;;;;;2.15;1.20;;;7.50;74.70;;;;;;5101527;28;20359;-65
2024/03/25 07:18:15;;;;;;;2.05;1.00;;;7.90;74.80;;;;;;5102166;28;20460;-66
2024/03/25 07:20:42;;;;;;;2.78;1.42;;;8.10;74.80;;;;;;5101319;28;20024;-65
2024/03/25 07:23:08;;;;;;;1.65;0.82;;;;;;;;;;5066345;28;20040;-65
2024/03/25 07:25:35;;;;;;;0.82;0.80;;;;;;;;;;5101321;28;20091;-65
2024/03/25 07:28:02;;;;;;;1.02;0.90;;;8.40;83.60;;;;;;5100819;28;20036;-65
2024/03/25 07:30:28;;;;;;;1.63;1.42;;;9.50;73.50;;;;;;5101878;28;20036;-66
2024/03/25 07:32:55;;;;;;;1.27;1.10;;;8.50;91.20;;;;;;5102010;28;20032;-65
2024/03/25 07:35:21;;;;;;;1.77;1.10;;;8.00;90.80;;;;;;5084634;28;20024;-65
2024/03/25 07:37:51;;;;;;;2.58;1.70;;;8.10;90.60;;;;;;5090687;28;20042;-65
2024/03/25 07:40:17;;;;;;;1.38;1.27;;;7.90;90.50;;;;;;5101775;28;20338;-65
2024/03/25 07:42:42;;;;;;;1.80;0.98;;;8.00;90.80;;;;;;5101684;28;20015;-65
2024/03/25 07:45:09;;;;;;;2.42;1.70;;;7.90;73.10;;;;;;5101679;28;20262;-65
2024/03/25 07:47:35;;;;;;;4.13;1.38;;;8.20;91.00;;;;;;5083617;28;20445;-65
2024/03/25 07:50:01;;;;;;;5.45;2.22;;;7.90;90.60;;;;;;5101590;28;20319;-67
2024/03/25 07:52:27;;;;;;;3.55;1.25;;;7.90;91.00;;;;;;5102037;28;20054;-65
2024/03/25 07:54:56;;;;;;;1.45;1.35;;;8.00;73.60;;;;;;5101805;28;20123;-66
2024/03/25 07:57:21;;;;;;;3.28;1.83;;;7.90;90.50;;;;;;5101379;28;20073;-65
2024/03/25 07:59:47;;;;;;;2.13;1.30;;;8.00;87.50;;;;;;5101510;28;20263;-65
2024/03/25 08:02:14;;;;;;;3.58;1.63;;;;;;;;;;5101286;28;20266;-65
2024/03/25 08:04:40;;;;;;;5.63;1.67;;;;;;;;;;5101437;28;20157;-65
2024/03/25 08:07:06;;;;;;;2.10;1.52;;;8.10;91.00;;;;;;5101450;28;20024;-65
2024/03/25 08:09:32;;;;;;;1.73;1.08;;;;;;;;;;5102000;28;20020;-65
2024/03/25 08:11:58;;;;;;;2.03;1.33;;;8.40;91.10;;;;;;5101216;28;20031;-66
2024/03/25 08:14:24;;;;;;;3.38;1.73;;;;;;;;;;5101486;28;20082;-65
2024/03/25 08:16:50;;;;;;;1.80;0.85;;;;;;;;;;5108406;28;20099;-65
2024/03/25 08:19:16;;;;;;;2.08;1.38;;;9.00;85.80;;;;;;5101117;28;20073;-65
2024/03/25 08:21:42;;;;;;;1.02;0.80;;;;;;;;;;5100510;28;20254;-66
2024/03/25 08:24:08;;;;;;;1.88;1.38;;;;;;;;;;5100350;28;20030;-65
2024/03/25 08:26:34;;;;;;;1.52;1.00;;;;;;;;;;5101529;28;20040;-65
2024/03/25 08:29:00;;;;;;;1.88;1.10;;;;;;;;;;5100683;28;20218;-65
2024/03/25 08:31:26;;;;;;;3.45;1.58;;;;;;;;;;5100945;28;20028;-65
2024/03/25 08:33:53;;;;;;;1.90;1.42;;;;;;;;;;5101050;28;20051;-65
2024/03/25 08:36:18;;;;;;;1.80;1.35;;;9.80;83.20;;;;;;5100768;28;20102;-65
2024/03/25 08:38:44;;;;;;;1.23;1.10;;;;;;;;;;5100855;28;20331;-65
2024/03/25 08:41:10;;;;;;;1.05;0.95;;;9.70;68.00;;;;;;5100416;28;20084;-65
2024/03/25 08:43:36;;;;;;;2.50;1.00;;;;;;;;;;5084913;28;20035;-65
2024/03/25 08:46:03;;;;;;;1.38;1.00;;;;;;;;;;5100539;28;20123;-65
2024/03/25 08:48:29;;;;;;;1.92;1.65;;;;;;;;;;5092225;28;20028;-65
2024/03/25 08:50:55;;;;;;;1.95;1.75;;;;;;;;;;5100407;28;20035;-65
2024/03/25 08:53:21;;;;;;;1.88;1.63;;;10.40;79.70;;;;;;5085741;28;20056;-65
2024/03/25 08:55:47;;;;;;;2.33;1.52;;;10.40;79.00;;;;;;5080224;28;20028;-65
2024/03/25 08:58:14;;;;;;;2.72;1.13;;;;;;;;;;5081514;28;20041;-65
2024/03/25 09:00:40;;;;;;;1.67;1.50;;;;;;;;;;5087238;28;20112;-65
2024/03/25 09:03:06;;;;;;;2.50;1.45;;;10.10;76.60;;;;;;5081770;28;20036;-65
2024/03/25 09:05:33;;;;;;;1.30;1.20;;;;;;;;;;5080404;28;20087;-65
2024/03/25 09:07:59;;;;;;;1.65;1.10;;;;;;;;;;5061620;28;20112;-66
2024/03/25 09:13:11;;;;;;;2.53;0.90;;;10.30;61.10;;;;;;5079736;28;20117;-65
2024/03/25 09:15:37;;;;;;;2.90;1.38;;;11.10;64.70;;;;;;5080594;28;20051;-65
2024/03/25 09:18:02;;;;;;;1.55;1.45;;;11.30;76.80;;;;;;5062384;28;20385;-65
2024/03/25 09:20:28;;;;;;;2.13;1.88;;;11.00;59.30;;;;;;5061838;28;20262;-65
2024/03/25 09:22:54;;;;;;;1.40;1.30;;;;;;;;;;5079548;28;20059;-67
2024/03/25 09:25:20;;;;;;;2.00;1.52;;;10.70;75.50;;;;;;5079659;28;20028;-65
2024/03/25 09:27:47;;;;;;;0.95;0.70;;;10.40;58.20;;;;;;5082851;28;20042;-67
2024/03/25 09:30:13;;;;;;;1.55;0.70;;;10.20;74.60;;;;;;5079267;28;20328;-66
2024/03/25 09:32:39;;;;;;;1.40;0.68;;;;;;;;;;5080131;28;20055;-66
2024/03/25 09:35:06;;;;;;;3.53;1.45;;;;;;;;;;5079371;28;20048;-65
2024/03/25 09:37:32;;;;;;;3.63;0.93;;;;;;;;;;5079529;28;20099;-65
2024/03/25 09:40:01;;;;;;;2.55;1.02;;;10.10;59.80;;;;;;5079440;28;20043;-66
2024/03/25 09:42:27;;;;;;;;;;;10.40;59.70;;;;;;5079873;28;20111;-65
2024/03/25 09:44:56;;;;;;;2.55;1.05;;;10.70;78.80;;;;;;5079170;28;19947;-66
2024/03/25 09:47:22;;;;;;;1.33;0.93;;;10.80;59.60;;;;;;5079509;28;20032;-66
2024/03/25 09:49:48;;;;;;;2.13;0.95;;;11.10;58.70;;;;;;5080069;28;20040;-66
2024/03/25 09:52:18;;;;;;;3.10;1.20;;;11.20;58.30;;;;;;5084343;28;20072;-66
2024/03/25 09:54:45;;;;;;;1.52;1.23;;;;;;;;;;5099502;28;20343;-66
2024/03/25 09:57:12;;;;;;;1.85;1.42;;;11.40;56.10;;;;;;5099326;28;20048;-67
2024/03/25 09:59:39;;;;;;;3.38;1.45;;;11.40;72.80;;;;;;5106157;28;20059;-66
2024/03/25 10:02:05;;;;;;;2.40;1.80;;;11.60;74.30;;;;;;5105754;28;20032;-66
2024/03/25 10:04:31;;;;;;;3.35;1.80;;;11.50;59.10;;;;;;5099289;28;20349;-66
2024/03/25 10:06:57;;;;;;;2.22;1.23;;;;;;;;;;5099892;28;20035;-66
2024/03/25 10:09:23;;;;;;;1.20;1.10;;;12.20;53.90;;;;;;5099562;28;20105;-66
2024/03/25 10:11:49;;;;;;;5.07;1.13;;;12.10;54.20;;;;;;5099411;28;20095;-66
2024/03/25 10:14:16;;;;;;;3.63;1.27;;;11.90;54.60;;;;;;5099169;28;20036;-65
2024/03/25 10:16:42;;;;;;;1.40;1.10;;;11.90;72.80;;;;;;5106151;28;20520;-65
2024/03/25 10:19:09;;;;;;;2.83;1.33;;;11.20;56.40;;;;;;5099101;28;20046;-66
2024/03/25 10:21:36;;;;;;;2.28;1.70;;;11.20;76.00;;;;;;5099469;28;20074;-65
2024/03/25 10:24:02;;;;;;;2.35;1.50;;;;;;;;;;5099563;28;20345;-65
2024/03/25 10:26:29;;;;;;;2.88;1.48;;;11.40;58.40;;;;;;5099412;28;20063;-66
2024/03/25 10:28:59;;;;;;;1.60;1.30;;;12.00;56.50;;;;;;5098938;28;20131;-65
2024/03/25 10:31:25;;;;;;;2.47;1.67;;;;;;;;;;5099283;28;20032;-66
2024/03/25 10:33:51;;;;;;;2.15;1.35;;;;;;;;;;5098998;28;20040;-66
2024/03/25 10:36:17;;;;;;;4.00;0.90;;;;;;;;;;5098880;28;20035;-65
2024/03/25 10:38:44;;;;;;;1.52;0.90;;;12.80;70.30;;;;;;5110669;28;20031;-66
2024/03/25 10:41:14;;;;;;;1.52;1.27;;;12.80;53.50;;;;;;5100657;28;20032;-65
2024/03/25 10:43:42;;;;;;;5.00;1.95;;;12.20;56.70;;;;;;5098815;28;20032;-66
2024/03/25 10:46:08;;;;;;;3.63;1.30;;;;;;;;;;5100520;28;20469;-65
2024/03/25 10:48:39;;;;;;;2.22;2.03;;;11.00;74.10;;;;;;5071081;28;20028;-65
2024/03/25 10:51:07;;;;;;;3.65;2.08;;;10.40;78.70;;;;;;5100719;28;20032;-65
2024/03/25 10:53:36;;;;;;;4.50;1.80;;;10.50;61.10;;;;;;5104063;28;20040;-65
2024/03/25 10:56:04;;;;;;;2.75;1.40;;;10.50;78.50;;;;;;5106757;28;20051;-65
2024/03/25 10:58:31;;;;;;;3.42;2.40;;;10.80;60.50;;;;;;5103236;28;20051;-66
2024/03/25 11:00:58;;;;;;;3.85;2.05;;;11.20;72.40;;;;;;5102335;28;20035;-65
2024/03/25 11:03:25;;;;;;;3.05;1.27;;;11.70;62.50;;;;;;5102728;28;20092;-66
2024/03/25 11:05:51;;;;;;;1.67;1.10;;;;;;;;;;5102213;28;20031;-66
2024/03/25 11:08:17;;;;;;;1.73;1.63;;;12.50;55.90;;;;;;5102158;28;20326;-65
2024/03/25 11:10:47;;;;;;;3.10;1.10;;;12.30;59.20;;;;;;5102324;28;20047;-66
2024/03/25 11:13:19;;;;;;;5.93;0.98;;;11.60;55.30;;;;;;5083761;28;20032;-65
2024/03/25 11:15:47;;;;;;;0.70;0.70;;;11.30;65.40;;;;;;5104491;28;20303;-66
2024/03/25 11:18:14;;;;;;;1.15;0.75;;;10.80;74.20;;;;;;5101991;28;20032;-65
2024/03/25 11:20:40;;;;;;;0.80;0.80;;;10.50;74.10;;;;;;5069441;28;20043;-65
2024/03/25 11:23:10;;;;;;;3.78;1.52;;;10.90;73.70;;;;;;5099873;28;20084;-65
2024/03/25 11:25:37;;;;;;;1.13;1.02;;;10.90;57.30;;;;;;5101988;28;20247;-65
2024/03/25 11:28:03;;;;;;;1.45;1.00;;;;;;;;;;5102037;28;20101;-66
2024/03/25 11:30:31;;;;;;;1.60;1.50;;;11.70;62.50;;;;;;5101961;28;20036;-65
2024/03/25 11:32:57;;;;;;;3.92;1.77;;;;;;;;;;5102205;28;20212;-66
2024/03/25 11:35:23;;;;;;;2.33;1.10;;;;;;;;;;5101968;28;20027;-66
2024/03/25 11:37:51;;;;;;;2.22;1.27;;;;;;;;;;5101815;28;20095;-66
2024/03/25 11:40:17;;;;;;;2.10;1.43;;;;;;;;;;5101658;28;20284;-66
2024/03/25 11:42:43;;;;;;;1.65;1.55;;;12.60;68.40;;;;;;5101561;28;20028;-66
2024/03/25 11:45:20;;;;;;;3.17;1.50;;;12.70;53.80;;;;;;5102232;28;20377;-66
2024/03/25 11:47:47;;;;;;;3.05;1.67;;;12.90;67.30;;;;;;5101908;28;20032;-66
2024/03/25 11:50:14;;;;;;;2.53;1.10;;;13.10;55.90;;;;;;5102072;28;20047;-65
2024/03/25 11:52:40;;;;;;;2.13;1.08;;;12.10;59.70;;;;;;5101588;28;20105;-65
2024/03/25 11:55:08;;;;;;;1.77;1.23;;;11.40;64.70;;;;;;5101426;28;20446;-65
2024/03/25 11:57:34;;;;;;;1.45;1.13;;;;;;;;;;5083346;28;20039;-65
2024/03/25 12:00:00;;;;;;;1.77;1.27;;;;;;;;;;5083424;28;20036;-65
2024/03/25 12:02:26;;;;;;;2.78;1.52;;;;;;;;;;5083568;28;20035;-66
2024/03/25 12:04:52;;;;;;;2.60;1.70;;;;;;;;;;5101680;28;20097;-65
2024/03/25 12:07:18;;;;;;;2.40;1.60;;;10.80;78.70;;;;;;5102104;28;20056;-66
2024/03/25 12:12:29;;;;;;;2.15;1.95;;;;;;;;;;5101704;28;20086;-67
2024/03/25 12:14:56;;;;;;;1.63;1.45;;;11.30;63.90;;;;;;5101219;28;20042;-66
2024/03/25 12:17:22;;;;;;;3.28;1.60;;;10.70;79.80;;;;;;5101158;28;20065;-66
2024/03/25 12:20:05;;;;;;;2.67;1.48;;;10.60;83.60;;;;;;5101297;28;20038;-65
2024/03/25 12:22:35;;;;;;;1.73;1.63;;;10.20;80.00;;;;;;5100991;28;20120;-65
2024/03/25 12:25:03;;;;;;;6.53;2.25;;;10.50;66.20;;;;;;5103165;28;20040;-66
2024/03/25 12:27:28;;;;;;;2.72;2.20;;;11.00;80.70;;;;;;5101001;28;20047;-65
2024/03/25 12:29:59;;;;;;;2.15;1.75;;;11.10;65.40;;;;;;5100940;28;20511;-66
2024/03/25 12:32:41;;;;;;;1.52;1.42;;;11.50;65.10;;;;;;5100961;28;20336;-65
2024/03/25 12:35:18;;;;;;;2.97;1.55;;;12.10;69.80;;;;;;5100755;28;20036;-65
2024/03/25 12:37:45;;;;;;;2.88;1.60;;;12.20;63.20;;;;;;5110821;28;20082;-65
2024/03/25 12:40:28;;;;;;;2.92;1.80;;;12.40;61.50;;;;;;5102317;28;20051;-65
2024/03/25 12:42:54;;;;;;;1.50;1.40;;;13.00;76.90;;;;;;5100426;28;20026;-65
2024/03/25 12:45:23;;;;;;;2.42;1.23;;;13.80;57.20;;;;;;5100403;28;20073;-66
2024/03/25 12:47:50;;;;;;;2.47;1.30;;;13.60;66.70;;;;;;5100595;28;20024;-66
2024/03/25 12:50:16;;;;;;;1.60;0.95;;;;;;;;;;5100499;28;20066;-65
2024/03/25 12:52:42;;;;;;;2.17;1.40;;;;;;;;;;5100118;28;20339;-66
2024/03/25 12:55:09;;;;;;;3.97;1.27;;;;;;;;;;5100479;28;20036;-66
2024/03/25 12:57:35;;;;;;;1.13;1.02;;;13.00;66.00;;;;;;5101017;28;20288;-66
2024/03/25 13:00:03;;;;;;;2.13;1.45;;;;;;;;;;5088501;28;20391;-65
2024/03/25 13:02:29;;;;;;;1.85;1.23;;;;;;;;;;5107057;28;20092;-66
2024/03/25 13:04:55;;;;;;;0.98;0.75;;;;;;;;;;5081737;28;20028;-65
2024/03/25 13:07:21;;;;;;;0.73;0.73;;;;;;;;;;5100237;28;20036;-65
2024/03/25 13:09:47;;;;;;;0.63;0.63;;;;;;;;;;5099449;28;20028;-67
2024/03/25 13:12:13;;;;;;;1.30;0.50;;;18.50;50.70;;;;;;5099765;28;20308;-67
2024/03/25 13:14:39;;;;;;;1.27;0.57;;;16.40;56.30;;;;;;5100552;28;20039;-66
2024/03/25 13:17:07;;;;;;;0.50;0.50;;;14.10;59.30;;;;;;5099730;28;20048;-66
2024/03/25 13:19:33;;;;;;;1.60;0.70;;;14.00;45.50;;;;;;5099961;28;20028;-66
2024/03/25 13:21:59;;;;;;;0.80;0.80;;;13.00;48.80;;;;;;5099969;28;20111;-66